Farm — LBHF — position and weather

sailwx.info

Track history (hours):
 
Tides and Currents Weather Stations Pressure Air Temp Water Temp Dewpoint Dewpoint Depression Visibility Wind Speed Wind Dir Waves Ship Positions

Farm

Last reported at 2016-Jul-21 17:24 UTC. Time now 2016-Jul-24 01:03 UTC.
Position N 68°58' E 017°05'.

Length 46 m; draft 4 m.

Type: Law enforcement. MMSI: 257069200.

Date/timePositionNaut miles runAvg speedWind from/ knotsBaromVisibWave heightAir tempDewpointWater temp
2016-Jul-21 17:24N 68°58' E 017°05'8 8.7
2016-Jul-21 16:30N 69°04' E 017°21'8 8.9
2016-Jul-21 15:33N 69°08' E 017°41'8 7.6
2016-Jul-21 14:33N 69°13' E 017°58'  
2016-Jul-17 04:33N 70°02' E 030°10'3 2.8
2016-Jul-17 03:32N 70°04' E 030°17'2 2.5
2016-Jul-17 02:33N 70°05' E 030°23'3 2.7
2016-Jul-17 01:29N 70°07' E 030°30'2 2.7
2016-Jul-17 00:33N 70°08' E 030°35'4 3.5
2016-Jul-16 23:26N 70°11' E 030°44'  
Track history (hours):
 
Tides and Currents Weather Stations Pressure Air Temp Water Temp Dewpoint Dewpoint Depression Visibility Wind Speed Wind Dir Waves Ship Positions

Farm

Last reported at 2016-Jul-21 17:24 UTC. Time now 2016-Jul-24 01:03 UTC.
Position N 68°58' E 017°05'.

Length 46 m; draft 4 m.

Type: Law enforcement. MMSI: 257069200.

Date/timePositionNaut miles runAvg speedWind from/ knotsBaromVisibWave heightAir tempDewpointWater temp
2016-Jul-21 17:24N 68°58' E 017°05'8 8.7
2016-Jul-21 16:30N 69°04' E 017°21'8 8.9
2016-Jul-21 15:33N 69°08' E 017°41'8 7.6
2016-Jul-21 14:33N 69°13' E 017°58'  
2016-Jul-17 04:33N 70°02' E 030°10'3 2.8
2016-Jul-17 03:32N 70°04' E 030°17'2 2.5
2016-Jul-17 02:33N 70°05' E 030°23'3 2.7
2016-Jul-17 01:29N 70°07' E 030°30'2 2.7
2016-Jul-17 00:33N 70°08' E 030°35'4 3.5
2016-Jul-16 23:26N 70°11' E 030°44'  

Dump ship's entire track history